createdAt,value
2019-04-30T00:00:58.352Z,20.67
2019-04-30T00:03:35.314Z,12.37
2019-04-30T00:06:07.204Z,13.07
2019-04-30T00:08:35.414Z,10.47
2019-04-30T00:11:05.357Z,11.60
2019-04-30T00:13:35.732Z,11.80
2019-04-30T00:16:05.228Z,10.83
2019-04-30T00:18:37.869Z,10.47
2019-04-30T00:21:05.455Z,9.40
2019-04-30T00:23:33.772Z,8.20
2019-04-30T00:26:08.188Z,9.30
2019-04-30T00:28:31.942Z,8.77
2019-04-30T00:31:00.402Z,9.30
2019-04-30T00:33:28.684Z,10.47
2019-04-30T00:35:58.075Z,13.13
2019-04-30T00:38:29.591Z,11.57
2019-04-30T00:41:01.966Z,10.87
2019-04-30T00:43:28.544Z,10.73
2019-04-30T00:45:56.692Z,6.20
2019-04-30T00:48:29.649Z,6.43
2019-04-30T00:50:55.867Z,8.80
2019-04-30T00:53:26.095Z,8.60
2019-04-30T00:55:55.610Z,9.63
2019-04-30T00:58:30.246Z,8.93
2019-04-30T01:01:10.443Z,8.90
2019-04-30T01:03:46.387Z,8.30
2019-04-30T01:06:11.378Z,9.03
2019-04-30T01:08:46.144Z,9.07
2019-04-30T01:11:25.381Z,8.20
2019-04-30T01:13:55.786Z,7.03
2019-04-30T01:16:30.113Z,5.90
2019-04-30T01:18:56.284Z,6.43
2019-04-30T01:21:24.712Z,5.73
2019-04-30T01:23:55.421Z,6.43
2019-04-30T01:26:27.751Z,5.83
2019-04-30T01:28:58.520Z,7.10
2019-04-30T01:31:33.004Z,7.87
2019-04-30T01:33:59.042Z,13.90
2019-04-30T01:36:29.378Z,10.23
2019-04-30T01:38:59.234Z,9.13
2019-04-30T01:41:31.331Z,8.03
2019-04-30T01:43:58.527Z,7.63
2019-04-30T01:46:29.158Z,7.80
2019-04-30T01:48:58.841Z,7.40
2019-04-30T01:51:28.600Z,8.23
2019-04-30T01:53:56.946Z,9.30
2019-04-30T01:56:31.988Z,8.33
2019-04-30T01:59:12.644Z,8.50
2019-04-30T02:01:45.284Z,8.50
2019-04-30T02:04:16.984Z,9.40
2019-04-30T02:06:45.159Z,10.93
2019-04-30T02:09:15.788Z,8.50
2019-04-30T02:11:46.997Z,10.90
2019-04-30T02:14:16.490Z,8.67
2019-04-30T02:16:44.731Z,8.63
2019-04-30T02:19:18.807Z,10.50
2019-04-30T02:21:49.629Z,11.50
2019-04-30T02:24:20.100Z,11.50
2019-04-30T02:26:52.435Z,12.60
2019-04-30T02:29:23.021Z,11.90
2019-04-30T02:31:53.910Z,12.57
2019-04-30T02:34:26.779Z,12.27
2019-04-30T02:37:09.803Z,12.93
2019-04-30T02:39:40.857Z,13.13
2019-04-30T02:42:13.275Z,13.57
2019-04-30T02:44:44.132Z,15.13
2019-04-30T02:47:15.105Z,14.07
2019-04-30T02:49:53.475Z,14.33
2019-04-30T02:52:20.811Z,12.57
2019-04-30T02:54:49.979Z,11.77
2019-04-30T02:57:20.498Z,8.00
2019-04-30T03:00:06.113Z,9.80
2019-04-30T03:02:34.557Z,8.33
2019-04-30T03:05:02.886Z,6.97
2019-04-30T03:07:32.073Z,7.77
2019-04-30T03:10:00.253Z,7.30
2019-04-30T03:12:33.108Z,7.80
2019-04-30T03:15:00.481Z,7.30
2019-04-30T03:17:50.602Z,7.67
2019-04-30T03:20:35.754Z,7.10
2019-04-30T03:23:03.044Z,8.40
2019-04-30T03:25:36.150Z,8.37
2019-04-30T03:28:04.600Z,9.10
2019-04-30T03:30:35.773Z,6.90
2019-04-30T03:33:03.913Z,8.53
2019-04-30T03:35:32.769Z,7.97
2019-04-30T03:38:01.251Z,7.43
2019-04-30T03:40:30.194Z,8.30
2019-04-30T03:42:59.742Z,7.53
2019-04-30T03:45:30.192Z,7.43
2019-04-30T03:48:00.278Z,8.00
2019-04-30T03:50:32.896Z,7.90
2019-04-30T03:53:00.449Z,6.97
2019-04-30T03:55:29.908Z,7.33
2019-04-30T03:58:00.170Z,7.40
2019-04-30T04:00:30.240Z,10.30
2019-04-30T04:02:59.886Z,11.03
2019-04-30T04:05:30.467Z,8.80
2019-04-30T04:08:00.352Z,9.40
2019-04-30T04:10:31.575Z,7.53
2019-04-30T04:13:02.188Z,10.50
2019-04-30T04:15:31.033Z,13.40
2019-04-30T04:18:00.336Z,11.23
2019-04-30T04:20:29.846Z,13.53
2019-04-30T04:22:59.845Z,12.40
2019-04-30T04:25:29.944Z,11.30
2019-04-30T04:28:00.415Z,8.93
2019-04-30T04:30:29.768Z,8.23
2019-04-30T04:32:59.870Z,6.27
2019-04-30T04:35:30.430Z,6.23
2019-04-30T04:38:02.914Z,6.87
2019-04-30T04:40:33.448Z,10.33
2019-04-30T04:43:04.826Z,17.20
2019-04-30T04:45:33.581Z,17.07
2019-04-30T04:48:04.570Z,18.57
2019-04-30T04:50:32.982Z,20.80
2019-04-30T04:53:01.144Z,15.30
2019-04-30T04:55:31.731Z,16.37
2019-04-30T04:58:02.502Z,25.10
2019-04-30T05:00:30.768Z,18.80
2019-04-30T05:03:09.476Z,17.27
2019-04-30T05:05:39.788Z,15.90
2019-04-30T05:08:10.190Z,16.93
2019-04-30T05:10:40.674Z,15.93
2019-04-30T05:13:09.747Z,16.87
2019-04-30T05:15:39.041Z,11.57
2019-04-30T05:18:10.000Z,8.70
2019-04-30T05:20:41.282Z,17.47
2019-04-30T05:23:21.562Z,18.87
2019-04-30T05:25:49.084Z,19.20
2019-04-30T05:28:20.502Z,11.50
2019-04-30T05:30:49.416Z,6.40
2019-04-30T05:33:18.610Z,9.70
2019-04-30T05:35:49.643Z,6.57
2019-04-30T05:38:19.941Z,7.13
2019-04-30T05:40:49.551Z,8.10
2019-04-30T05:43:19.194Z,9.40
2019-04-30T05:45:49.998Z,12.63
2019-04-30T05:48:23.075Z,20.77
2019-04-30T05:50:59.124Z,19.30
2019-04-30T05:53:28.712Z,17.17
2019-04-30T05:56:03.244Z,14.10
2019-04-30T05:58:32.030Z,14.23
2019-04-30T06:01:00.702Z,14.70
2019-04-30T06:03:33.027Z,14.47
2019-04-30T06:05:59.051Z,14.63
2019-04-30T06:08:29.173Z,16.13
2019-04-30T06:11:09.348Z,10.87
2019-04-30T06:13:58.902Z,12.10
2019-04-30T06:16:30.200Z,9.47
2019-04-30T06:19:00.679Z,9.63
2019-04-30T06:21:31.625Z,10.53
2019-04-30T06:23:59.851Z,10.10
2019-04-30T06:26:29.534Z,10.00
2019-04-30T06:28:59.259Z,9.90
2019-04-30T06:31:34.785Z,9.17
2019-04-30T06:34:00.279Z,10.40
2019-04-30T06:36:30.752Z,9.57
2019-04-30T06:39:05.033Z,10.07
2019-04-30T06:41:33.397Z,11.07
2019-04-30T06:44:01.556Z,8.13
2019-04-30T06:46:30.629Z,7.90
2019-04-30T06:48:59.553Z,7.20
2019-04-30T06:51:30.796Z,6.20
2019-04-30T06:54:01.633Z,5.57
2019-04-30T06:56:29.875Z,7.40
2019-04-30T06:58:59.036Z,5.83
2019-04-30T07:01:29.794Z,5.13
2019-04-30T07:04:00.745Z,6.50
2019-04-30T07:06:32.787Z,8.00
2019-04-30T07:09:20.800Z,7.97
2019-04-30T07:11:50.637Z,8.07
2019-04-30T07:14:21.303Z,7.30
2019-04-30T07:16:54.116Z,7.97
2019-04-30T07:19:32.920Z,7.27
2019-04-30T07:21:59.413Z,6.13
2019-04-30T07:24:29.635Z,6.30
2019-04-30T07:27:02.774Z,5.57
2019-04-30T07:29:32.595Z,6.40
2019-04-30T07:32:01.061Z,6.67
2019-04-30T07:34:36.656Z,7.70
2019-04-30T07:39:39.106Z,5.17
2019-04-30T07:42:09.936Z,3.93
2019-04-30T07:44:39.452Z,4.20
2019-04-30T07:47:09.669Z,4.17
2019-04-30T07:49:49.968Z,3.67
2019-04-30T07:52:11.544Z,3.30
2019-04-30T07:54:39.830Z,4.00
2019-04-30T07:57:09.469Z,5.40
2019-04-30T07:59:39.669Z,5.27
2019-04-30T08:02:14.526Z,7.30
2019-04-30T08:04:44.947Z,9.50
2019-04-30T08:07:14.049Z,5.60
2019-04-30T08:09:36.914Z,7.07
2019-04-30T08:09:45.051Z,6.70
2019-04-30T08:12:22.251Z,7.87
2019-04-30T08:14:49.600Z,6.03
2019-04-30T08:17:20.821Z,4.60
2019-04-30T08:19:49.325Z,5.07
2019-04-30T08:22:19.673Z,4.63
2019-04-30T08:24:49.172Z,5.10
2019-04-30T08:27:19.173Z,4.20
2019-04-30T08:29:49.421Z,4.20
2019-04-30T08:32:19.998Z,3.20
2019-04-30T08:34:50.571Z,2.93
2019-04-30T08:37:21.320Z,3.83
2019-04-30T08:39:54.138Z,4.70
2019-04-30T08:42:31.656Z,3.77
2019-04-30T08:44:59.502Z,3.80
2019-04-30T08:47:30.092Z,4.67
2019-04-30T08:50:02.731Z,3.00
2019-04-30T08:52:30.818Z,3.23
2019-04-30T08:55:13.505Z,3.53
2019-04-30T08:57:32.400Z,3.80
2019-04-30T09:00:00.658Z,3.93
2019-04-30T09:02:29.336Z,3.93
2019-04-30T09:05:00.484Z,5.93
2019-04-30T09:07:32.617Z,6.97
2019-04-30T09:10:04.775Z,9.07
2019-04-30T09:12:32.839Z,4.93
2019-04-30T09:15:01.291Z,5.27
2019-04-30T09:17:29.899Z,5.23
2019-04-30T09:20:00.299Z,7.50
2019-04-30T09:22:31.255Z,5.97
2019-04-30T09:24:59.697Z,5.63
2019-04-30T09:27:29.473Z,8.23
2019-04-30T09:30:00.660Z,9.00
2019-04-30T09:32:29.613Z,6.60
2019-04-30T09:34:58.763Z,9.37
2019-04-30T09:37:27.164Z,7.93
2019-04-30T09:39:55.448Z,10.77
2019-04-30T09:42:23.680Z,11.93
2019-04-30T09:44:57.009Z,11.20
2019-04-30T09:47:24.355Z,12.43
2019-04-30T09:49:53.978Z,12.90
2019-04-30T09:52:22.425Z,16.90
2019-04-30T09:54:51.535Z,7.60
2019-04-30T09:57:20.827Z,8.23
2019-04-30T09:59:51.451Z,7.20
2019-04-30T10:02:19.651Z,7.57
2019-04-30T10:04:48.769Z,8.97
2019-04-30T10:07:20.032Z,11.23
2019-04-30T10:09:50.993Z,11.20
2019-04-30T10:12:19.702Z,14.33
2019-04-30T10:14:49.488Z,20.00
2019-04-30T10:17:21.064Z,22.57
2019-04-30T10:19:49.332Z,29.27
2019-04-30T10:22:17.612Z,25.30
2019-04-30T10:24:46.234Z,24.17
2019-04-30T10:27:15.720Z,25.83
2019-04-30T10:29:43.907Z,30.93
2019-04-30T10:32:12.413Z,31.37
2019-04-30T10:34:41.550Z,35.57
2019-04-30T10:37:10.194Z,28.50
2019-04-30T10:39:38.985Z,28.23
2019-04-30T10:42:07.860Z,32.93
2019-04-30T10:44:36.340Z,29.97
2019-04-30T10:47:04.560Z,30.73
2019-04-30T10:49:32.771Z,29.13
2019-04-30T10:52:01.334Z,25.40
2019-04-30T10:54:29.565Z,27.47
2019-04-30T10:56:59.135Z,29.70
2019-04-30T10:59:28.007Z,24.40
2019-04-30T11:01:56.576Z,28.13
2019-04-30T11:04:25.240Z,27.50
2019-04-30T11:06:53.546Z,34.40
2019-04-30T11:09:21.860Z,31.90
2019-04-30T11:11:50.081Z,30.13
2019-04-30T11:14:18.442Z,33.83
2019-04-30T11:16:46.946Z,28.70
2019-04-30T11:19:15.430Z,30.17
2019-04-30T11:21:44.145Z,42.73
2019-04-30T11:24:12.959Z,37.00
2019-04-30T11:26:42.501Z,54.30
2019-04-30T11:29:12.382Z,32.93
2019-04-30T11:31:45.466Z,28.00
2019-04-30T11:34:15.146Z,19.90
2019-04-30T11:36:43.433Z,19.60
2019-04-30T11:39:13.668Z,18.80
2019-04-30T11:41:42.013Z,17.20
2019-04-30T11:44:10.505Z,18.73
2019-04-30T11:46:49.909Z,23.47
2019-04-30T11:49:20.167Z,27.13
2019-04-30T11:51:47.999Z,17.37
2019-04-30T11:54:18.812Z,19.77
2019-04-30T11:56:50.227Z,17.97
2019-04-30T11:59:19.109Z,14.07
2019-04-30T12:01:49.620Z,14.13
2019-04-30T12:04:20.744Z,14.83
2019-04-30T12:06:49.257Z,19.77
2019-04-30T12:09:35.832Z,21.17
2019-04-30T12:12:04.526Z,20.30
2019-04-30T12:14:32.693Z,18.10
2019-04-30T12:17:01.365Z,14.87
2019-04-30T12:19:29.841Z,15.93
2019-04-30T12:21:59.353Z,16.83
2019-04-30T12:24:30.199Z,12.10
2019-04-30T12:26:59.569Z,16.90
2019-04-30T12:29:29.127Z,34.13
2019-04-30T12:31:58.441Z,21.30
2019-04-30T12:34:26.702Z,31.80
2019-04-30T12:36:54.926Z,21.67
2019-04-30T12:39:25.932Z,27.17
2019-04-30T12:41:54.114Z,20.57
2019-04-30T12:44:22.326Z,19.17
2019-04-30T12:46:50.681Z,21.50
2019-04-30T12:49:19.315Z,26.10
2019-04-30T12:52:05.882Z,15.93
2019-04-30T12:54:38.597Z,14.13
2019-04-30T12:57:11.287Z,13.73
2019-04-30T12:59:39.536Z,11.80
2019-04-30T13:02:09.113Z,14.43
2019-04-30T13:04:39.409Z,14.33
2019-04-30T13:07:10.353Z,13.90
2019-04-30T13:09:39.905Z,12.53
2019-04-30T13:12:10.379Z,10.73
2019-04-30T13:14:50.812Z,13.20
2019-04-30T13:17:08.442Z,11.37
2019-04-30T13:19:36.664Z,35.43
2019-04-30T13:22:05.152Z,25.80
2019-04-30T13:24:33.839Z,21.43
2019-04-30T13:27:02.295Z,14.93
2019-04-30T13:29:32.109Z,22.83
2019-04-30T13:32:00.321Z,18.20
2019-04-30T13:34:46.825Z,12.90
2019-04-30T13:37:15.034Z,16.00
2019-04-30T13:39:53.130Z,16.80
2019-04-30T13:42:25.786Z,18.20
2019-04-30T13:44:54.093Z,18.30
2019-04-30T13:47:22.304Z,17.47
2019-04-30T13:49:51.094Z,14.93
2019-04-30T13:52:19.667Z,32.13
2019-04-30T13:54:48.688Z,19.77
2019-04-30T13:57:17.083Z,18.43
2019-04-30T13:59:45.740Z,14.57
2019-04-30T14:02:14.028Z,12.47
2019-04-30T14:04:46.826Z,13.40
2019-04-30T14:07:25.922Z,14.90
2019-04-30T14:09:54.452Z,13.10
2019-04-30T14:12:22.886Z,14.50
2019-04-30T14:14:51.113Z,18.97
2019-04-30T14:17:19.836Z,16.70
2019-04-30T14:19:48.215Z,20.00
2019-04-30T14:22:16.508Z,18.03
2019-04-30T14:24:44.867Z,17.23
2019-04-30T14:27:13.564Z,15.87
2019-04-30T14:29:42.643Z,19.23
2019-04-30T14:32:11.147Z,13.73
2019-04-30T14:34:39.683Z,20.67
2019-04-30T14:37:09.336Z,18.83
2019-04-30T14:39:37.895Z,25.03
2019-04-30T14:42:07.609Z,22.40
2019-04-30T14:44:37.348Z,20.70
2019-04-30T14:47:21.959Z,18.60
2019-04-30T14:50:09.916Z,20.37
2019-04-30T14:52:49.779Z,62.03
2019-04-30T14:55:26.428Z,52.53
2019-04-30T14:58:09.669Z,19.67
2019-04-30T15:00:46.014Z,19.67
2019-04-30T15:03:16.466Z,27.70
2019-04-30T15:05:49.412Z,29.73
2019-04-30T15:08:16.391Z,29.13
2019-04-30T15:10:44.771Z,25.23
2019-04-30T15:13:13.000Z,28.93
2019-04-30T15:15:41.630Z,24.20
2019-04-30T15:18:10.005Z,23.30
2019-04-30T15:20:39.855Z,22.07
2019-04-30T15:23:09.962Z,27.03
2019-04-30T15:25:38.976Z,25.90
2019-04-30T15:28:07.467Z,21.80
2019-04-30T15:30:36.132Z,21.80
2019-04-30T15:33:14.792Z,26.47
2019-04-30T15:35:43.517Z,29.17
2019-04-30T15:38:13.238Z,26.40
2019-04-30T15:40:41.528Z,22.37
2019-04-30T15:43:09.944Z,27.03
2019-04-30T15:45:39.172Z,26.10
2019-04-30T15:48:08.700Z,29.00
2019-04-30T15:50:39.165Z,34.70
2019-04-30T15:53:07.162Z,35.80
2019-04-30T15:55:35.639Z,71.53
2019-04-30T15:58:05.476Z,28.57
2019-04-30T16:00:34.238Z,55.77
2019-04-30T16:03:22.189Z,33.37
2019-04-30T16:05:52.090Z,27.10
2019-04-30T16:08:25.054Z,19.97
2019-04-30T16:11:10.401Z,27.40
2019-04-30T16:13:56.022Z,26.47
2019-04-30T16:16:28.205Z,24.37
2019-04-30T16:18:59.729Z,25.67
2019-04-30T16:21:29.289Z,27.00
2019-04-30T16:23:58.507Z,22.30
2019-04-30T16:26:31.582Z,20.27
2019-04-30T16:29:03.827Z,21.00
2019-04-30T16:31:34.223Z,20.37
2019-04-30T16:34:02.608Z,22.57
2019-04-30T16:36:30.874Z,21.97
2019-04-30T16:38:59.398Z,28.23
2019-04-30T16:41:31.822Z,21.93
2019-04-30T16:44:00.804Z,27.13
2019-04-30T16:46:31.155Z,28.13
2019-04-30T16:49:00.150Z,25.67
2019-04-30T16:51:29.008Z,37.00
2019-04-30T16:53:58.637Z,29.67
2019-04-30T16:56:28.618Z,29.17
2019-04-30T16:59:02.057Z,30.50
2019-04-30T17:01:35.012Z,31.97
2019-04-30T17:04:15.755Z,52.00
2019-04-30T17:06:46.154Z,29.00
2019-04-30T17:09:25.543Z,32.03
2019-04-30T17:12:03.231Z,36.23
2019-04-30T17:14:33.253Z,49.67
2019-04-30T17:17:01.671Z,45.83
2019-04-30T17:19:30.243Z,50.73
2019-04-30T17:21:59.992Z,58.47
2019-04-30T17:24:30.128Z,62.53
2019-04-30T17:26:59.263Z,61.17
2019-04-30T17:29:28.550Z,71.23
2019-04-30T17:31:56.737Z,79.70
2019-04-30T17:34:24.893Z,105.63
2019-04-30T17:36:53.145Z,117.97
2019-04-30T17:39:27.856Z,90.90
2019-04-30T17:41:56.046Z,86.13
2019-04-30T17:44:28.807Z,131.07
2019-04-30T17:46:57.446Z,106.43
2019-04-30T17:49:27.763Z,78.23
2019-04-30T17:51:56.177Z,109.73
2019-04-30T17:54:35.043Z,118.07
2019-04-30T17:56:56.905Z,106.57
2019-04-30T17:59:25.261Z,104.90
2019-04-30T18:01:59.479Z,101.90
2019-04-30T18:04:29.545Z,103.47
2019-04-30T18:07:02.804Z,80.43
2019-04-30T18:09:30.942Z,87.43
2019-04-30T18:11:59.700Z,81.97
2019-04-30T18:14:31.694Z,74.50
2019-04-30T18:16:59.876Z,111.70
2019-04-30T18:19:31.528Z,60.37
2019-04-30T18:22:03.512Z,59.17
2019-04-30T18:24:38.900Z,56.57
2019-04-30T18:27:20.990Z,53.93
2019-04-30T18:29:48.848Z,58.60
2019-04-30T18:32:17.099Z,58.83
2019-04-30T18:34:45.352Z,55.23
2019-04-30T18:37:18.925Z,57.87
2019-04-30T18:39:47.386Z,57.13
2019-04-30T18:42:15.721Z,61.77
2019-04-30T18:44:45.114Z,62.13
2019-04-30T18:47:16.576Z,62.63
2019-04-30T18:49:44.846Z,69.40
2019-04-30T18:52:18.812Z,67.33
2019-04-30T18:54:49.414Z,49.67
2019-04-30T18:57:18.568Z,61.53
2019-04-30T18:59:47.358Z,57.20
2019-04-30T19:02:15.651Z,65.20
2019-04-30T19:04:43.979Z,69.47
2019-04-30T19:07:19.676Z,65.47
2019-04-30T19:09:59.177Z,66.07
2019-04-30T19:12:48.926Z,49.63
2019-04-30T19:15:22.171Z,71.57
2019-04-30T19:17:52.399Z,68.57
2019-04-30T19:20:23.114Z,71.77
2019-04-30T19:22:53.375Z,66.13
2019-04-30T19:25:22.925Z,63.30
2019-04-30T19:28:09.559Z,49.70
2019-04-30T19:30:32.539Z,58.27
2019-04-30T19:33:01.003Z,56.10
2019-04-30T19:35:29.362Z,56.30
2019-04-30T19:37:59.238Z,57.13
2019-04-30T19:40:28.624Z,51.37
2019-04-30T19:42:57.193Z,72.60
2019-04-30T19:45:25.489Z,52.87
2019-04-30T19:47:54.801Z,48.40
2019-04-30T19:50:23.478Z,45.27
2019-04-30T19:52:52.341Z,73.23
2019-04-30T19:55:20.850Z,66.97
2019-04-30T19:57:51.048Z,64.80
2019-04-30T20:00:19.016Z,82.87
2019-04-30T20:02:48.699Z,94.20
2019-04-30T20:05:19.259Z,80.90
2019-04-30T20:07:47.086Z,81.10
2019-04-30T20:10:15.906Z,104.97
2019-04-30T20:12:44.134Z,109.23
2019-04-30T20:15:19.349Z,83.07
2019-04-30T20:17:43.246Z,80.57
2019-04-30T20:20:11.427Z,82.10
2019-04-30T20:22:39.812Z,87.87
2019-04-30T20:25:09.148Z,80.20
2019-04-30T20:27:39.556Z,87.13
2019-04-30T20:30:09.602Z,96.80
2019-04-30T20:32:37.878Z,91.80
2019-04-30T20:35:07.090Z,91.00
2019-04-30T20:37:36.951Z,107.80
2019-04-30T20:40:08.670Z,110.23
2019-04-30T20:42:40.028Z,112.80
2019-04-30T20:45:09.235Z,97.33
2019-04-30T20:47:39.310Z,102.10
2019-04-30T20:50:08.313Z,98.83
2019-04-30T20:52:38.945Z,65.70
2019-04-30T20:55:07.435Z,80.73
2019-04-30T20:57:36.182Z,91.77
2019-04-30T21:00:06.061Z,100.03
2019-04-30T21:02:34.743Z,121.47
2019-04-30T21:05:02.962Z,96.33
2019-04-30T21:07:31.364Z,102.67
2019-04-30T21:10:00.432Z,97.60
2019-04-30T21:12:30.752Z,89.40
2019-04-30T21:14:59.627Z,79.03
2019-04-30T21:17:28.278Z,86.30
2019-04-30T21:19:56.619Z,86.10
2019-04-30T21:22:25.014Z,91.00
2019-04-30T21:24:53.461Z,80.30
2019-04-30T21:27:21.684Z,88.30
2019-04-30T21:29:51.135Z,78.67
2019-04-30T21:32:38.803Z,73.00
2019-04-30T21:35:24.609Z,72.87
2019-04-30T21:38:01.709Z,67.53
2019-04-30T21:40:30.074Z,61.67
2019-04-30T21:42:58.363Z,66.63
2019-04-30T21:45:29.239Z,63.70
2019-04-30T21:48:01.454Z,55.60
2019-04-30T21:50:29.754Z,52.10
2019-04-30T21:52:59.701Z,54.27
2019-04-30T21:55:29.696Z,62.03
2019-04-30T21:57:59.442Z,49.70
2019-04-30T22:00:42.732Z,54.63
2019-04-30T22:03:11.084Z,42.97
2019-04-30T22:05:39.443Z,41.00
2019-04-30T22:08:09.072Z,58.70
2019-04-30T22:10:37.849Z,59.93
2019-04-30T22:13:06.058Z,57.17
2019-04-30T22:15:34.580Z,55.87
2019-04-30T22:18:02.795Z,48.50
2019-04-30T22:20:31.472Z,52.67
2019-04-30T22:22:59.784Z,46.70
2019-04-30T22:25:29.346Z,39.33
2019-04-30T22:27:58.013Z,33.00
2019-04-30T22:30:26.260Z,31.80
2019-04-30T22:32:54.473Z,30.90
2019-04-30T22:35:24.689Z,29.37
2019-04-30T22:37:54.870Z,36.80
2019-04-30T22:40:23.451Z,35.93
2019-04-30T22:42:51.824Z,43.57
2019-04-30T22:45:21.856Z,44.60
2019-04-30T22:47:50.373Z,38.90
2019-04-30T22:50:18.903Z,39.80
2019-04-30T22:52:47.616Z,40.13
2019-04-30T22:55:17.087Z,37.43
2019-04-30T22:57:45.452Z,31.73
2019-04-30T23:00:15.388Z,37.73
2019-04-30T23:02:45.234Z,29.30
2019-04-30T23:05:15.417Z,41.73
2019-04-30T23:07:43.672Z,28.50
2019-04-30T23:10:11.880Z,27.80
2019-04-30T23:12:40.315Z,29.60
2019-04-30T23:15:08.839Z,28.27
2019-04-30T23:17:37.196Z,33.87
2019-04-30T23:20:06.319Z,28.93
2019-04-30T23:22:34.972Z,45.57
2019-04-30T23:25:04.618Z,34.20
2019-04-30T23:27:32.973Z,26.93
2019-04-30T23:30:03.448Z,24.63
2019-04-30T23:32:31.385Z,24.50
2019-04-30T23:35:00.108Z,25.67
2019-04-30T23:37:28.524Z,24.73
2019-04-30T23:39:57.181Z,19.03
2019-04-30T23:42:26.293Z,21.43
2019-04-30T23:44:54.815Z,22.47
2019-04-30T23:47:23.332Z,22.17
2019-04-30T23:49:51.722Z,22.70
2019-04-30T23:52:20.445Z,27.17
2019-04-30T23:54:49.250Z,23.93
2019-04-30T23:57:19.160Z,24.10
2019-04-30T23:59:47.400Z,28.07
